sensor_id;sensor_type;location;lat;lon;timestamp;P1;durP1;ratioP1;P2;durP2;ratioP2
17566;SDS011;8901;52.088;5.084;2023-09-08T00:01:12;15.32;;;14.13;;
17566;SDS011;8901;52.088;5.084;2023-09-08T00:03:40;14.43;;;13.10;;
17566;SDS011;8901;52.088;5.084;2023-09-08T00:06:08;15.82;;;14.68;;
17566;SDS011;8901;52.088;5.084;2023-09-08T00:08:35;16.65;;;15.35;;
17566;SDS011;8901;52.088;5.084;2023-09-08T00:11:02;14.63;;;13.43;;
17566;SDS011;8901;52.088;5.084;2023-09-08T00:13:31;15.30;;;14.10;;
17566;SDS011;8901;52.088;5.084;2023-09-08T00:15:59;13.73;;;12.52;;
17566;SDS011;8901;52.088;5.084;2023-09-08T00:18:26;15.10;;;13.75;;
17566;SDS011;8901;52.088;5.084;2023-09-08T00:20:54;14.32;;;13.02;;
17566;SDS011;8901;52.088;5.084;2023-09-08T00:23:22;15.55;;;13.93;;
17566;SDS011;8901;52.088;5.084;2023-09-08T00:25:49;15.43;;;14.23;;
17566;SDS011;8901;52.088;5.084;2023-09-08T00:28:16;16.60;;;15.20;;
17566;SDS011;8901;52.088;5.084;2023-09-08T00:30:43;14.63;;;13.32;;
17566;SDS011;8901;52.088;5.084;2023-09-08T00:33:11;15.02;;;13.73;;
17566;SDS011;8901;52.088;5.084;2023-09-08T00:35:39;15.60;;;14.48;;
17566;SDS011;8901;52.088;5.084;2023-09-08T00:38:07;15.57;;;14.38;;
17566;SDS011;8901;52.088;5.084;2023-09-08T00:40:34;16.33;;;14.73;;
17566;SDS011;8901;52.088;5.084;2023-09-08T00:43:02;17.63;;;16.15;;
17566;SDS011;8901;52.088;5.084;2023-09-08T00:45:29;15.05;;;13.65;;
17566;SDS011;8901;52.088;5.084;2023-09-08T00:47:57;17.38;;;15.55;;
17566;SDS011;8901;52.088;5.084;2023-09-08T00:50:27;14.70;;;13.50;;
17566;SDS011;8901;52.088;5.084;2023-09-08T00:52:54;13.82;;;12.70;;
17566;SDS011;8901;52.088;5.084;2023-09-08T00:55:22;15.13;;;13.63;;
17566;SDS011;8901;52.088;5.084;2023-09-08T00:57:50;15.05;;;13.57;;
17566;SDS011;8901;52.088;5.084;2023-09-08T01:00:17;14.70;;;13.30;;
17566;SDS011;8901;52.088;5.084;2023-09-08T01:02:45;15.07;;;13.77;;
17566;SDS011;8901;52.088;5.084;2023-09-08T01:05:12;13.57;;;12.55;;
17566;SDS011;8901;52.088;5.084;2023-09-08T01:07:39;15.20;;;14.00;;
17566;SDS011;8901;52.088;5.084;2023-09-08T01:10:08;15.10;;;13.80;;
17566;SDS011;8901;52.088;5.084;2023-09-08T01:12:36;15.52;;;13.90;;
17566;SDS011;8901;52.088;5.084;2023-09-08T01:15:04;14.20;;;13.05;;
17566;SDS011;8901;52.088;5.084;2023-09-08T01:17:32;14.48;;;13.02;;
17566;SDS011;8901;52.088;5.084;2023-09-08T01:20:00;14.65;;;13.45;;
17566;SDS011;8901;52.088;5.084;2023-09-08T01:25:21;14.82;;;13.32;;
17566;SDS011;8901;52.088;5.084;2023-09-08T01:27:49;15.10;;;13.80;;
17566;SDS011;8901;52.088;5.084;2023-09-08T01:30:16;14.68;;;13.43;;
17566;SDS011;8901;52.088;5.084;2023-09-08T01:32:44;15.35;;;13.75;;
17566;SDS011;8901;52.088;5.084;2023-09-08T01:35:12;15.65;;;14.30;;
17566;SDS011;8901;52.088;5.084;2023-09-08T01:37:40;16.23;;;15.00;;
17566;SDS011;8901;52.088;5.084;2023-09-08T01:40:08;16.65;;;15.07;;
17566;SDS011;8901;52.088;5.084;2023-09-08T01:42:38;16.52;;;15.02;;
17566;SDS011;8901;52.088;5.084;2023-09-08T01:45:05;16.02;;;14.70;;
17566;SDS011;8901;52.088;5.084;2023-09-08T01:47:33;15.32;;;14.02;;
17566;SDS011;8901;52.088;5.084;2023-09-08T01:50:01;17.35;;;16.00;;
17566;SDS011;8901;52.088;5.084;2023-09-08T01:52:28;18.70;;;17.15;;
17566;SDS011;8901;52.088;5.084;2023-09-08T01:54:56;16.10;;;14.80;;
17566;SDS011;8901;52.088;5.084;2023-09-08T01:57:23;17.55;;;16.08;;
17566;SDS011;8901;52.088;5.084;2023-09-08T01:59:51;16.92;;;15.25;;
17566;SDS011;8901;52.088;5.084;2023-09-08T02:02:18;18.00;;;16.23;;
17566;SDS011;8901;52.088;5.084;2023-09-08T02:04:46;16.77;;;15.38;;
17566;SDS011;8901;52.088;5.084;2023-09-08T02:07:13;17.30;;;15.73;;
17566;SDS011;8901;52.088;5.084;2023-09-08T02:09:41;17.30;;;15.90;;
17566;SDS011;8901;52.088;5.084;2023-09-08T02:12:08;17.40;;;15.90;;
17566;SDS011;8901;52.088;5.084;2023-09-08T02:14:35;16.95;;;15.65;;
17566;SDS011;8901;52.088;5.084;2023-09-08T02:17:04;15.43;;;14.13;;
17566;SDS011;8901;52.088;5.084;2023-09-08T02:19:32;15.13;;;13.90;;
17566;SDS011;8901;52.088;5.084;2023-09-08T02:21:59;15.50;;;14.15;;
17566;SDS011;8901;52.088;5.084;2023-09-08T02:24:26;15.77;;;14.40;;
17566;SDS011;8901;52.088;5.084;2023-09-08T02:26:53;16.75;;;15.25;;
17566;SDS011;8901;52.088;5.084;2023-09-08T02:29:21;17.02;;;15.57;;
17566;SDS011;8901;52.088;5.084;2023-09-08T02:31:48;17.27;;;15.88;;
17566;SDS011;8901;52.088;5.084;2023-09-08T02:34:17;16.52;;;15.13;;
17566;SDS011;8901;52.088;5.084;2023-09-08T02:36:44;17.25;;;15.95;;
17566;SDS011;8901;52.088;5.084;2023-09-08T02:39:12;15.70;;;14.50;;
17566;SDS011;8901;52.088;5.084;2023-09-08T02:41:40;16.10;;;14.60;;
17566;SDS011;8901;52.088;5.084;2023-09-08T02:44:07;16.55;;;15.10;;
17566;SDS011;8901;52.088;5.084;2023-09-08T02:46:34;17.67;;;16.08;;
17566;SDS011;8901;52.088;5.084;2023-09-08T02:49:01;18.55;;;16.65;;
17566;SDS011;8901;52.088;5.084;2023-09-08T02:51:30;18.40;;;16.67;;
17566;SDS011;8901;52.088;5.084;2023-09-08T02:53:57;17.73;;;16.33;;
17566;SDS011;8901;52.088;5.084;2023-09-08T02:56:24;19.20;;;17.67;;
17566;SDS011;8901;52.088;5.084;2023-09-08T02:58:51;18.50;;;16.83;;
17566;SDS011;8901;52.088;5.084;2023-09-08T03:01:18;18.35;;;16.75;;
17566;SDS011;8901;52.088;5.084;2023-09-08T03:03:46;19.67;;;18.15;;
17566;SDS011;8901;52.088;5.084;2023-09-08T03:06:14;19.13;;;17.63;;
17566;SDS011;8901;52.088;5.084;2023-09-08T03:08:43;18.60;;;17.02;;
17566;SDS011;8901;52.088;5.084;2023-09-08T03:11:10;17.90;;;16.48;;
17566;SDS011;8901;52.088;5.084;2023-09-08T03:13:37;17.00;;;15.50;;
17566;SDS011;8901;52.088;5.084;2023-09-08T03:16:05;16.80;;;15.30;;
17566;SDS011;8901;52.088;5.084;2023-09-08T03:18:32;16.25;;;14.50;;
17566;SDS011;8901;52.088;5.084;2023-09-08T03:21:01;17.52;;;16.02;;
17566;SDS011;8901;52.088;5.084;2023-09-08T03:23:34;17.95;;;16.42;;
17566;SDS011;8901;52.088;5.084;2023-09-08T03:26:02;17.15;;;15.70;;
17566;SDS011;8901;52.088;5.084;2023-09-08T03:28:29;18.48;;;17.00;;
17566;SDS011;8901;52.088;5.084;2023-09-08T03:30:56;15.88;;;14.57;;
17566;SDS011;8901;52.088;5.084;2023-09-08T03:33:24;17.48;;;15.75;;
17566;SDS011;8901;52.088;5.084;2023-09-08T03:35:51;17.77;;;16.27;;
17566;SDS011;8901;52.088;5.084;2023-09-08T03:38:18;18.42;;;16.65;;
17566;SDS011;8901;52.088;5.084;2023-09-08T03:40:45;17.52;;;16.13;;
17566;SDS011;8901;52.088;5.084;2023-09-08T03:43:14;19.05;;;17.08;;
17566;SDS011;8901;52.088;5.084;2023-09-08T03:45:42;19.92;;;18.10;;
17566;SDS011;8901;52.088;5.084;2023-09-08T03:48:09;19.63;;;18.02;;
17566;SDS011;8901;52.088;5.084;2023-09-08T03:50:36;19.58;;;17.88;;
17566;SDS011;8901;52.088;5.084;2023-09-08T03:53:03;19.00;;;17.48;;
17566;SDS011;8901;52.088;5.084;2023-09-08T03:55:31;18.48;;;16.88;;
17566;SDS011;8901;52.088;5.084;2023-09-08T03:57:58;17.02;;;15.32;;
17566;SDS011;8901;52.088;5.084;2023-09-08T04:00:27;16.40;;;14.90;;
17566;SDS011;8901;52.088;5.084;2023-09-08T04:02:54;18.20;;;16.58;;
17566;SDS011;8901;52.088;5.084;2023-09-08T04:05:21;18.45;;;16.83;;
17566;SDS011;8901;52.088;5.084;2023-09-08T04:07:49;20.20;;;18.17;;
17566;SDS011;8901;52.088;5.084;2023-09-08T04:10:16;18.98;;;17.30;;
17566;SDS011;8901;52.088;5.084;2023-09-08T04:12:43;19.23;;;17.52;;
17566;SDS011;8901;52.088;5.084;2023-09-08T04:15:10;17.45;;;15.85;;
17566;SDS011;8901;52.088;5.084;2023-09-08T04:17:39;16.73;;;15.13;;
17566;SDS011;8901;52.088;5.084;2023-09-08T04:20:06;17.33;;;15.63;;
17566;SDS011;8901;52.088;5.084;2023-09-08T04:22:34;17.63;;;15.98;;
17566;SDS011;8901;52.088;5.084;2023-09-08T04:25:01;16.20;;;14.85;;
17566;SDS011;8901;52.088;5.084;2023-09-08T04:27:30;18.70;;;17.00;;
17566;SDS011;8901;52.088;5.084;2023-09-08T04:30:00;15.50;;;14.20;;
17566;SDS011;8901;52.088;5.084;2023-09-08T04:32:28;16.73;;;15.23;;
17566;SDS011;8901;52.088;5.084;2023-09-08T04:34:56;16.50;;;15.20;;
17566;SDS011;8901;52.088;5.084;2023-09-08T04:37:23;15.73;;;14.43;;
17566;SDS011;8901;52.088;5.084;2023-09-08T04:39:50;17.55;;;15.90;;
17566;SDS011;8901;52.088;5.084;2023-09-08T04:42:18;17.95;;;16.55;;
17566;SDS011;8901;52.088;5.084;2023-09-08T04:44:45;18.58;;;17.08;;
17566;SDS011;8901;52.088;5.084;2023-09-08T04:47:12;18.25;;;16.60;;
17566;SDS011;8901;52.088;5.084;2023-09-08T04:49:39;17.60;;;16.08;;
17566;SDS011;8901;52.088;5.084;2023-09-08T04:52:08;17.35;;;15.85;;
17566;SDS011;8901;52.088;5.084;2023-09-08T04:54:36;17.05;;;15.45;;
17566;SDS011;8901;52.088;5.084;2023-09-08T04:57:04;18.48;;;16.80;;
17566;SDS011;8901;52.088;5.084;2023-09-08T04:59:31;18.23;;;16.83;;
17566;SDS011;8901;52.088;5.084;2023-09-08T05:01:59;17.95;;;16.45;;
17566;SDS011;8901;52.088;5.084;2023-09-08T05:04:26;19.15;;;17.35;;
17566;SDS011;8901;52.088;5.084;2023-09-08T05:06:53;18.23;;;16.73;;
17566;SDS011;8901;52.088;5.084;2023-09-08T05:09:22;19.05;;;17.30;;
17566;SDS011;8901;52.088;5.084;2023-09-08T05:11:49;18.40;;;16.60;;
17566;SDS011;8901;52.088;5.084;2023-09-08T05:14:16;16.50;;;15.00;;
17566;SDS011;8901;52.088;5.084;2023-09-08T05:16:43;15.38;;;14.07;;
17566;SDS011;8901;52.088;5.084;2023-09-08T05:19:14;17.83;;;16.42;;
17566;SDS011;8901;52.088;5.084;2023-09-08T05:21:42;19.20;;;17.33;;
17566;SDS011;8901;52.088;5.084;2023-09-08T05:24:09;17.42;;;15.93;;
17566;SDS011;8901;52.088;5.084;2023-09-08T05:26:38;17.25;;;15.88;;
17566;SDS011;8901;52.088;5.084;2023-09-08T05:29:05;16.63;;;15.25;;
17566;SDS011;8901;52.088;5.084;2023-09-08T05:31:32;17.80;;;16.20;;
17566;SDS011;8901;52.088;5.084;2023-09-08T05:33:59;15.95;;;14.43;;
17566;SDS011;8901;52.088;5.084;2023-09-08T05:36:28;16.52;;;15.00;;
17566;SDS011;8901;52.088;5.084;2023-09-08T05:38:56;14.85;;;13.35;;
17566;SDS011;8901;52.088;5.084;2023-09-08T05:41:23;13.65;;;12.38;;
17566;SDS011;8901;52.088;5.084;2023-09-08T05:43:52;14.68;;;12.88;;
17566;SDS011;8901;52.088;5.084;2023-09-08T05:46:19;14.15;;;12.75;;
17566;SDS011;8901;52.088;5.084;2023-09-08T05:48:46;14.77;;;13.38;;
17566;SDS011;8901;52.088;5.084;2023-09-08T05:51:14;14.18;;;12.77;;
17566;SDS011;8901;52.088;5.084;2023-09-08T05:53:41;14.38;;;12.82;;
17566;SDS011;8901;52.088;5.084;2023-09-08T05:56:08;15.35;;;13.57;;
17566;SDS011;8901;52.088;5.084;2023-09-08T05:58:35;20.92;;;13.80;;
17566;SDS011;8901;52.088;5.084;2023-09-08T06:01:04;15.60;;;11.80;;
17566;SDS011;8901;52.088;5.084;2023-09-08T06:03:32;15.55;;;13.98;;
17566;SDS011;8901;52.088;5.084;2023-09-08T06:05:59;14.35;;;12.35;;
17566;SDS011;8901;52.088;5.084;2023-09-08T06:08:26;12.65;;;11.27;;
17566;SDS011;8901;52.088;5.084;2023-09-08T06:10:53;13.70;;;12.30;;
17566;SDS011;8901;52.088;5.084;2023-09-08T06:13:21;13.77;;;12.30;;
17566;SDS011;8901;52.088;5.084;2023-09-08T06:15:48;14.45;;;12.95;;
17566;SDS011;8901;52.088;5.084;2023-09-08T06:18:16;17.23;;;15.55;;
17566;SDS011;8901;52.088;5.084;2023-09-08T06:20:44;16.80;;;15.15;;
17566;SDS011;8901;52.088;5.084;2023-09-08T06:23:12;16.30;;;14.75;;
17566;SDS011;8901;52.088;5.084;2023-09-08T06:25:39;17.60;;;15.90;;
17566;SDS011;8901;52.088;5.084;2023-09-08T06:28:07;17.58;;;15.95;;
17566;SDS011;8901;52.088;5.084;2023-09-08T06:30:34;16.10;;;14.65;;
17566;SDS011;8901;52.088;5.084;2023-09-08T06:33:01;17.90;;;16.02;;
17566;SDS011;8901;52.088;5.084;2023-09-08T06:35:31;18.05;;;16.10;;
17566;SDS011;8901;52.088;5.084;2023-09-08T06:37:59;15.23;;;13.73;;
17566;SDS011;8901;52.088;5.084;2023-09-08T06:40:28;17.40;;;15.57;;
17566;SDS011;8901;52.088;5.084;2023-09-08T06:42:56;15.77;;;14.27;;
17566;SDS011;8901;52.088;5.084;2023-09-08T06:45:23;14.52;;;13.07;;
17566;SDS011;8901;52.088;5.084;2023-09-08T06:47:51;11.52;;;10.30;;
17566;SDS011;8901;52.088;5.084;2023-09-08T06:50:20;15.77;;;13.55;;
17566;SDS011;8901;52.088;5.084;2023-09-08T06:52:49;12.52;;;11.20;;
17566;SDS011;8901;52.088;5.084;2023-09-08T06:55:16;13.93;;;12.52;;
17566;SDS011;8901;52.088;5.084;2023-09-08T06:57:44;12.93;;;11.63;;
17566;SDS011;8901;52.088;5.084;2023-09-08T07:00:12;17.10;;;15.13;;
17566;SDS011;8901;52.088;5.084;2023-09-08T07:02:40;18.00;;;16.33;;
17566;SDS011;8901;52.088;5.084;2023-09-08T07:05:07;16.05;;;14.55;;
17566;SDS011;8901;52.088;5.084;2023-09-08T07:07:35;15.73;;;13.82;;
17566;SDS011;8901;52.088;5.084;2023-09-08T07:10:04;15.55;;;13.80;;
17566;SDS011;8901;52.088;5.084;2023-09-08T07:12:31;14.80;;;13.30;;
17566;SDS011;8901;52.088;5.084;2023-09-08T07:14:58;14.80;;;13.30;;
17566;SDS011;8901;52.088;5.084;2023-09-08T07:17:26;14.23;;;12.82;;
17566;SDS011;8901;52.088;5.084;2023-09-08T07:19:53;16.90;;;13.73;;
17566;SDS011;8901;52.088;5.084;2023-09-08T07:22:20;16.92;;;14.00;;
17566;SDS011;8901;52.088;5.084;2023-09-08T07:24:48;17.23;;;14.57;;
17566;SDS011;8901;52.088;5.084;2023-09-08T07:27:16;16.23;;;14.65;;
17566;SDS011;8901;52.088;5.084;2023-09-08T07:29:45;16.77;;;15.13;;
17566;SDS011;8901;52.088;5.084;2023-09-08T07:32:13;17.10;;;15.45;;
17566;SDS011;8901;52.088;5.084;2023-09-08T07:34:40;14.50;;;13.07;;
17566;SDS011;8901;52.088;5.084;2023-09-08T07:37:07;16.90;;;15.23;;
17566;SDS011;8901;52.088;5.084;2023-09-08T07:39:34;13.65;;;12.30;;
17566;SDS011;8901;52.088;5.084;2023-09-08T07:42:01;14.07;;;12.68;;
17566;SDS011;8901;52.088;5.084;2023-09-08T07:44:30;15.00;;;13.48;;
17566;SDS011;8901;52.088;5.084;2023-09-08T07:46:59;12.82;;;11.48;;
17566;SDS011;8901;52.088;5.084;2023-09-08T07:49:27;14.27;;;12.73;;
17566;SDS011;8901;52.088;5.084;2023-09-08T07:51:54;14.45;;;12.57;;
17566;SDS011;8901;52.088;5.084;2023-09-08T07:54:21;17.65;;;11.98;;
17566;SDS011;8901;52.088;5.084;2023-09-08T07:56:48;13.10;;;11.90;;
17566;SDS011;8901;52.088;5.084;2023-09-08T07:59:16;18.15;;;12.23;;
17566;SDS011;8901;52.088;5.084;2023-09-08T08:01:44;14.55;;;12.65;;
17566;SDS011;8901;52.088;5.084;2023-09-08T08:04:11;17.80;;;13.60;;
17566;SDS011;8901;52.088;5.084;2023-09-08T08:06:39;15.10;;;11.75;;
17566;SDS011;8901;52.088;5.084;2023-09-08T08:09:06;15.30;;;12.82;;
17566;SDS011;8901;52.088;5.084;2023-09-08T08:11:33;14.60;;;12.98;;
17566;SDS011;8901;52.088;5.084;2023-09-08T08:14:00;14.88;;;13.02;;
17566;SDS011;8901;52.088;5.084;2023-09-08T08:16:27;15.35;;;13.88;;
17566;SDS011;8901;52.088;5.084;2023-09-08T08:18:56;15.30;;;13.77;;
17566;SDS011;8901;52.088;5.084;2023-09-08T08:21:24;16.77;;;15.15;;
17566;SDS011;8901;52.088;5.084;2023-09-08T08:23:51;14.50;;;13.00;;
17566;SDS011;8901;52.088;5.084;2023-09-08T08:26:18;14.95;;;13.45;;
17566;SDS011;8901;52.088;5.084;2023-09-08T08:28:45;16.17;;;14.48;;
17566;SDS011;8901;52.088;5.084;2023-09-08T08:31:13;14.63;;;13.25;;
17566;SDS011;8901;52.088;5.084;2023-09-08T08:33:40;17.50;;;12.02;;
17566;SDS011;8901;52.088;5.084;2023-09-08T08:36:09;14.82;;;12.40;;
17566;SDS011;8901;52.088;5.084;2023-09-08T08:38:36;14.98;;;11.15;;
17566;SDS011;8901;52.088;5.084;2023-09-08T08:41:04;19.95;;;11.32;;
17566;SDS011;8901;52.088;5.084;2023-09-08T08:43:31;13.50;;;11.35;;
17566;SDS011;8901;52.088;5.084;2023-09-08T08:45:58;14.93;;;10.45;;
17566;SDS011;8901;52.088;5.084;2023-09-08T08:48:27;16.13;;;10.60;;
17566;SDS011;8901;52.088;5.084;2023-09-08T08:50:56;12.82;;;10.63;;
17566;SDS011;8901;52.088;5.084;2023-09-08T08:53:25;13.27;;;10.35;;
17566;SDS011;8901;52.088;5.084;2023-09-08T08:55:53;16.25;;;10.43;;
17566;SDS011;8901;52.088;5.084;2023-09-08T08:58:22;13.43;;;12.15;;
17566;SDS011;8901;52.088;5.084;2023-09-08T09:00:52;13.23;;;10.80;;
17566;SDS011;8901;52.088;5.084;2023-09-08T09:03:21;12.13;;;10.85;;
17566;SDS011;8901;52.088;5.084;2023-09-08T09:05:49;13.32;;;11.55;;
17566;SDS011;8901;52.088;5.084;2023-09-08T09:08:17;14.18;;;10.63;;
17566;SDS011;8901;52.088;5.084;2023-09-08T09:10:46;17.05;;;10.77;;
17566;SDS011;8901;52.088;5.084;2023-09-08T09:13:14;12.80;;;10.82;;
17566;SDS011;8901;52.088;5.084;2023-09-08T09:15:41;12.45;;;10.55;;
17566;SDS011;8901;52.088;5.084;2023-09-08T09:18:11;13.23;;;11.82;;
17566;SDS011;8901;52.088;5.084;2023-09-08T09:20:38;13.48;;;11.20;;
17566;SDS011;8901;52.088;5.084;2023-09-08T09:23:06;13.30;;;11.90;;
17566;SDS011;8901;52.088;5.084;2023-09-08T09:25:35;13.80;;;11.55;;
17566;SDS011;8901;52.088;5.084;2023-09-08T09:28:04;11.60;;;10.23;;
17566;SDS011;8901;52.088;5.084;2023-09-08T09:30:47;12.77;;;11.55;;
17566;SDS011;8901;52.088;5.084;2023-09-08T09:33:16;12.80;;;11.23;;
17566;SDS011;8901;52.088;5.084;2023-09-08T09:35:45;11.63;;;10.43;;
17566;SDS011;8901;52.088;5.084;2023-09-08T09:38:14;14.68;;;12.93;;
17566;SDS011;8901;52.088;5.084;2023-09-08T09:40:42;13.63;;;12.32;;
17566;SDS011;8901;52.088;5.084;2023-09-08T09:43:10;13.75;;;12.05;;
17566;SDS011;8901;52.088;5.084;2023-09-08T09:45:38;17.88;;;12.27;;
17566;SDS011;8901;52.088;5.084;2023-09-08T09:48:06;15.55;;;11.93;;
17566;SDS011;8901;52.088;5.084;2023-09-08T09:50:35;14.75;;;12.90;;
17566;SDS011;8901;52.088;5.084;2023-09-08T09:53:08;14.13;;;12.40;;
17566;SDS011;8901;52.088;5.084;2023-09-08T09:55:36;13.23;;;11.93;;
17566;SDS011;8901;52.088;5.084;2023-09-08T09:58:03;11.32;;;10.25;;
17566;SDS011;8901;52.088;5.084;2023-09-08T10:00:32;13.77;;;12.43;;
17566;SDS011;8901;52.088;5.084;2023-09-08T10:03:00;10.93;;;9.88;;
17566;SDS011;8901;52.088;5.084;2023-09-08T10:05:28;10.55;;;9.55;;
17566;SDS011;8901;52.088;5.084;2023-09-08T10:07:55;13.05;;;11.90;;
17566;SDS011;8901;52.088;5.084;2023-09-08T10:10:22;11.00;;;10.10;;
17566;SDS011;8901;52.088;5.084;2023-09-08T10:12:51;10.10;;;9.20;;
17566;SDS011;8901;52.088;5.084;2023-09-08T10:15:22;12.55;;;11.32;;
17566;SDS011;8901;52.088;5.084;2023-09-08T10:17:52;11.93;;;10.32;;
17566;SDS011;8901;52.088;5.084;2023-09-08T10:20:22;11.68;;;10.57;;
17566;SDS011;8901;52.088;5.084;2023-09-08T10:22:50;13.65;;;12.18;;
17566;SDS011;8901;52.088;5.084;2023-09-08T10:25:20;12.05;;;10.65;;
17566;SDS011;8901;52.088;5.084;2023-09-08T10:27:47;14.43;;;13.13;;
17566;SDS011;8901;52.088;5.084;2023-09-08T10:30:15;14.73;;;13.10;;
17566;SDS011;8901;52.088;5.084;2023-09-08T10:32:46;12.30;;;11.30;;
17566;SDS011;8901;52.088;5.084;2023-09-08T10:35:17;11.55;;;10.57;;
17566;SDS011;8901;52.088;5.084;2023-09-08T10:37:44;14.70;;;13.50;;
17566;SDS011;8901;52.088;5.084;2023-09-08T10:40:21;14.25;;;12.85;;
17566;SDS011;8901;52.088;5.084;2023-09-08T10:42:48;13.45;;;12.35;;
17566;SDS011;8901;52.088;5.084;2023-09-08T10:45:17;15.32;;;13.75;;
17566;SDS011;8901;52.088;5.084;2023-09-08T10:47:55;14.70;;;13.18;;
17566;SDS011;8901;52.088;5.084;2023-09-08T10:50:29;14.95;;;13.65;;
17566;SDS011;8901;52.088;5.084;2023-09-08T10:53:04;14.88;;;13.68;;
17566;SDS011;8901;52.088;5.084;2023-09-08T10:55:35;14.90;;;13.70;;
17566;SDS011;8901;52.088;5.084;2023-09-08T10:58:03;15.13;;;13.70;;
17566;SDS011;8901;52.088;5.084;2023-09-08T11:00:42;13.65;;;12.57;;
17566;SDS011;8901;52.088;5.084;2023-09-08T11:03:10;15.10;;;13.88;;
17566;SDS011;8901;52.088;5.084;2023-09-08T11:05:38;14.30;;;13.05;;
17566;SDS011;8901;52.088;5.084;2023-09-08T11:08:05;16.27;;;15.07;;
17566;SDS011;8901;52.088;5.084;2023-09-08T11:10:33;16.15;;;14.63;;
17566;SDS011;8901;52.088;5.084;2023-09-08T11:13:00;16.13;;;14.73;;
17566;SDS011;8901;52.088;5.084;2023-09-08T11:15:28;17.73;;;16.02;;
17566;SDS011;8901;52.088;5.084;2023-09-08T11:17:56;16.65;;;15.10;;
17566;SDS011;8901;52.088;5.084;2023-09-08T11:20:27;14.95;;;13.50;;
17566;SDS011;8901;52.088;5.084;2023-09-08T11:22:55;17.98;;;16.33;;
17566;SDS011;8901;52.088;5.084;2023-09-08T11:25:23;15.98;;;14.60;;
17566;SDS011;8901;52.088;5.084;2023-09-08T11:27:50;14.43;;;13.13;;
17566;SDS011;8901;52.088;5.084;2023-09-08T11:30:17;13.73;;;12.55;;
17566;SDS011;8901;52.088;5.084;2023-09-08T11:32:44;13.93;;;12.57;;
17566;SDS011;8901;52.088;5.084;2023-09-08T11:35:12;13.55;;;12.25;;
17566;SDS011;8901;52.088;5.084;2023-09-08T11:37:41;14.18;;;12.93;;
17566;SDS011;8901;52.088;5.084;2023-09-08T11:40:10;15.48;;;14.25;;
17566;SDS011;8901;52.088;5.084;2023-09-08T11:42:38;15.85;;;14.45;;
17566;SDS011;8901;52.088;5.084;2023-09-08T11:45:10;16.42;;;15.02;;
17566;SDS011;8901;52.088;5.084;2023-09-08T11:47:39;15.45;;;14.05;;
17566;SDS011;8901;52.088;5.084;2023-09-08T11:50:08;17.35;;;14.35;;
17566;SDS011;8901;52.088;5.084;2023-09-08T11:52:36;18.67;;;17.20;;
17566;SDS011;8901;52.088;5.084;2023-09-08T11:55:04;15.18;;;14.07;;
17566;SDS011;8901;52.088;5.084;2023-09-08T11:57:33;15.63;;;14.43;;
17566;SDS011;8901;52.088;5.084;2023-09-08T12:00:01;15.90;;;14.38;;
17566;SDS011;8901;52.088;5.084;2023-09-08T12:02:33;13.80;;;12.63;;
17566;SDS011;8901;52.088;5.084;2023-09-08T12:05:01;15.02;;;13.75;;
17566;SDS011;8901;52.088;5.084;2023-09-08T12:07:28;14.23;;;13.07;;
17566;SDS011;8901;52.088;5.084;2023-09-08T12:09:56;16.33;;;14.80;;
17566;SDS011;8901;52.088;5.084;2023-09-08T12:12:24;17.33;;;15.77;;
17566;SDS011;8901;52.088;5.084;2023-09-08T12:14:53;15.77;;;14.63;;
17566;SDS011;8901;52.088;5.084;2023-09-08T12:17:22;14.10;;;13.05;;
17566;SDS011;8901;52.088;5.084;2023-09-08T12:19:51;13.82;;;12.77;;
17566;SDS011;8901;52.088;5.084;2023-09-08T12:22:18;15.07;;;13.77;;
17566;SDS011;8901;52.088;5.084;2023-09-08T12:24:56;14.40;;;13.20;;
17566;SDS011;8901;52.088;5.084;2023-09-08T12:27:24;15.93;;;11.75;;
17566;SDS011;8901;52.088;5.084;2023-09-08T12:29:52;16.92;;;15.50;;
17566;SDS011;8901;52.088;5.084;2023-09-08T12:32:20;17.27;;;15.43;;
17566;SDS011;8901;52.088;5.084;2023-09-08T12:34:48;16.15;;;14.75;;
17566;SDS011;8901;52.088;5.084;2023-09-08T12:37:19;22.15;;;14.23;;
17566;SDS011;8901;52.088;5.084;2023-09-08T12:39:46;18.42;;;16.83;;
17566;SDS011;8901;52.088;5.084;2023-09-08T12:42:13;15.52;;;14.32;;
17566;SDS011;8901;52.088;5.084;2023-09-08T12:44:40;14.77;;;13.07;;
17566;SDS011;8901;52.088;5.084;2023-09-08T12:47:09;15.82;;;14.43;;
17566;SDS011;8901;52.088;5.084;2023-09-08T12:49:39;16.75;;;15.35;;
17566;SDS011;8901;52.088;5.084;2023-09-08T12:52:06;16.20;;;14.77;;
17566;SDS011;8901;52.088;5.084;2023-09-08T12:54:34;15.93;;;14.43;;
17566;SDS011;8901;52.088;5.084;2023-09-08T12:57:01;15.80;;;14.45;;
17566;SDS011;8901;52.088;5.084;2023-09-08T12:59:29;15.73;;;14.50;;
17566;SDS011;8901;52.088;5.084;2023-09-08T13:01:56;15.98;;;14.75;;
17566;SDS011;8901;52.088;5.084;2023-09-08T13:04:24;16.83;;;15.38;;
17566;SDS011;8901;52.088;5.084;2023-09-08T13:06:53;17.13;;;15.93;;
17566;SDS011;8901;52.088;5.084;2023-09-08T13:09:20;17.02;;;15.73;;
17566;SDS011;8901;52.088;5.084;2023-09-08T13:11:47;18.77;;;16.90;;
17566;SDS011;8901;52.088;5.084;2023-09-08T13:14:16;18.13;;;16.63;;
17566;SDS011;8901;52.088;5.084;2023-09-08T13:16:44;17.35;;;15.73;;
17566;SDS011;8901;52.088;5.084;2023-09-08T13:19:11;18.00;;;16.40;;
17566;SDS011;8901;52.088;5.084;2023-09-08T13:21:38;17.25;;;15.68;;
17566;SDS011;8901;52.088;5.084;2023-09-08T13:24:07;16.17;;;14.82;;
17566;SDS011;8901;52.088;5.084;2023-09-08T13:26:36;15.23;;;14.02;;
17566;SDS011;8901;52.088;5.084;2023-09-08T13:29:03;14.93;;;13.65;;
17566;SDS011;8901;52.088;5.084;2023-09-08T13:31:30;17.02;;;15.73;;
17566;SDS011;8901;52.088;5.084;2023-09-08T13:33:58;17.50;;;16.10;;
17566;SDS011;8901;52.088;5.084;2023-09-08T13:36:25;16.23;;;14.90;;
17566;SDS011;8901;52.088;5.084;2023-09-08T13:38:52;16.27;;;14.88;;
17566;SDS011;8901;52.088;5.084;2023-09-08T13:41:21;12.65;;;11.50;;
17566;SDS011;8901;52.088;5.084;2023-09-08T13:43:48;12.98;;;12.07;;
17566;SDS011;8901;52.088;5.084;2023-09-08T13:46:16;16.00;;;14.85;;
17566;SDS011;8901;52.088;5.084;2023-09-08T13:48:43;15.65;;;14.18;;
17566;SDS011;8901;52.088;5.084;2023-09-08T13:51:11;16.73;;;15.32;;
17566;SDS011;8901;52.088;5.084;2023-09-08T13:53:38;16.92;;;15.43;;
17566;SDS011;8901;52.088;5.084;2023-09-08T13:56:06;18.83;;;17.42;;
17566;SDS011;8901;52.088;5.084;2023-09-08T13:58:35;16.98;;;15.35;;
17566;SDS011;8901;52.088;5.084;2023-09-08T14:01:02;20.50;;;18.75;;
17566;SDS011;8901;52.088;5.084;2023-09-08T14:03:29;16.40;;;15.00;;
17566;SDS011;8901;52.088;5.084;2023-09-08T14:05:57;17.92;;;16.33;;
17566;SDS011;8901;52.088;5.084;2023-09-08T14:08:24;17.35;;;16.10;;
17566;SDS011;8901;52.088;5.084;2023-09-08T14:10:52;17.40;;;15.90;;
17566;SDS011;8901;52.088;5.084;2023-09-08T14:13:19;16.10;;;14.85;;
17566;SDS011;8901;52.088;5.084;2023-09-08T14:15:48;18.55;;;17.00;;
17566;SDS011;8901;52.088;5.084;2023-09-08T14:18:16;20.00;;;18.45;;
17566;SDS011;8901;52.088;5.084;2023-09-08T14:20:43;19.13;;;17.80;;
17566;SDS011;8901;52.088;5.084;2023-09-08T14:23:10;20.85;;;19.42;;
17566;SDS011;8901;52.088;5.084;2023-09-08T14:25:38;18.08;;;16.60;;
17566;SDS011;8901;52.088;5.084;2023-09-08T14:28:05;12.25;;;11.35;;
17566;SDS011;8901;52.088;5.084;2023-09-08T14:30:33;12.98;;;12.02;;
17566;SDS011;8901;52.088;5.084;2023-09-08T14:33:02;17.65;;;16.17;;
17566;SDS011;8901;52.088;5.084;2023-09-08T14:35:31;18.42;;;17.13;;
17566;SDS011;8901;52.088;5.084;2023-09-08T14:40:35;15.93;;;14.63;;
17566;SDS011;8901;52.088;5.084;2023-09-08T14:43:02;18.98;;;17.48;;
17566;SDS011;8901;52.088;5.084;2023-09-08T14:45:30;18.90;;;17.35;;